Time;durP1;ratioP1;P1;durP2;ratioP2;P2;SDS_P1;SDS_P2;PMS_P1;PMS_P2;Temp;Humidity;BMP_temperature;BMP_pressure;BME280_temperature;BME280_humidity;BME280_pressure;Samples;Min_cycle;Max_cycle;Signal;HPM_P1;HPM_P2
2022/11/27 00:00:29;;;;;;;;;;;6.80;94.20;;;;;;5007515;28;20420;-43
2022/11/27 00:02:56;;;;;;;;;;;6.80;94.20;;;;;;5013295;28;19909;-43
2022/11/27 00:05:21;;;;;;;;;;;6.80;94.10;;;;;;5014790;28;20356;-44
2022/11/27 00:07:48;;;;;;;;;;;6.70;94.10;;;;;;5013319;28;20001;-43
2022/11/27 00:10:15;;;;;;;;;;;6.70;94.20;;;;;;5014867;28;20040;-44
2022/11/27 00:12:42;;;;;;;;;;;6.70;94.10;;;;;;4999913;28;20020;-43
2022/11/27 00:15:09;;;;;;;;;;;6.80;94.10;;;;;;5002977;28;19923;-43
2022/11/27 00:17:35;;;;;;;;;;;6.80;94.10;;;;;;5014917;28;19913;-44
2022/11/27 00:20:01;;;;;;;;;;;6.70;94.10;;;;;;5011768;28;19917;-44
2022/11/27 00:22:28;;;;;;;;;;;6.70;94.00;;;;;;5010657;28;20327;-43
2022/11/27 00:24:58;;;;;;;;;;;6.70;94.10;;;;;;4995032;28;19905;-43
2022/11/27 00:27:25;;;;;;;;;;;6.70;94.10;;;;;;4994985;28;20682;-44
2022/11/27 00:29:51;;;;;;;;;;;6.70;94.00;;;;;;4997155;28;19909;-43
2022/11/27 00:32:17;;;;;;;;;;;6.70;94.10;;;;;;4994950;28;20307;-44
2022/11/27 00:34:43;;;;;;;;;;;6.70;94.10;;;;;;4995494;28;20030;-44
2022/11/27 00:37:11;;;;;;;;;;;6.80;94.10;;;;;;5010402;28;19910;-43
2022/11/27 00:39:37;;;;;;;;;;;6.70;94.00;;;;;;4995024;28;19910;-44
2022/11/27 00:42:03;;;;;;;;;;;6.70;94.00;;;;;;4994148;28;19936;-43
2022/11/27 00:44:29;;;;;;;;;;;6.70;94.00;;;;;;4998395;28;19956;-44
2022/11/27 00:46:56;;;;;;;;;;;6.70;94.00;;;;;;5014485;28;20315;-43
2022/11/27 00:49:22;;;;;;;;;;;6.70;94.00;;;;;;5002360;28;20346;-43
2022/11/27 00:51:49;;;;;;;;;;;6.70;94.00;;;;;;4994718;28;20315;-43
2022/11/27 00:54:15;;;;;;;;;;;6.70;93.90;;;;;;5000874;28;19936;-43
2022/11/27 00:56:41;;;;;;;;;;;6.70;93.80;;;;;;5012772;28;19909;-43
2022/11/27 00:59:09;;;;;;;;;;;6.70;93.80;;;;;;5000647;28;19945;-43
2022/11/27 01:01:36;;;;;;;;;;;6.70;93.80;;;;;;5011365;28;20000;-44
2022/11/27 01:04:04;;;;;;;;;;;6.60;93.80;;;;;;5012665;28;20389;-44
2022/11/27 01:06:31;;;;;;;;;;;6.60;93.70;;;;;;5014053;28;19977;-43
2022/11/27 01:08:58;;;;;;;;;;;6.60;93.70;;;;;;5008849;28;19910;-44
2022/11/27 01:11:26;;;;;;;;;;;6.60;93.60;;;;;;4993704;28;19980;-43
2022/11/27 01:13:54;;;;;;;;;;;6.50;93.60;;;;;;5004701;28;19913;-44
2022/11/27 01:16:23;;;;;;;;;;;6.50;93.60;;;;;;5013936;28;19994;-43
2022/11/27 01:18:54;;;;;;;;;;;6.50;93.60;;;;;;5012872;28;19914;-43
2022/11/27 01:21:21;;;;;;;;;;;6.50;93.50;;;;;;5012322;28;20000;-43
2022/11/27 01:23:48;;;;;;;;;;;6.50;93.40;;;;;;5011225;28;19933;-44
2022/11/27 01:26:16;;;;;;;;;;;6.40;93.40;;;;;;5013760;28;19949;-43
2022/11/27 01:28:43;;;;;;;;;;;6.40;93.40;;;;;;5011967;28;19914;-44
2022/11/27 01:31:11;;;;;;;;;;;6.40;93.40;;;;;;4995143;28;20367;-44
2022/11/27 01:33:38;;;;;;;;;;;6.30;93.50;;;;;;5009302;28;20324;-44
2022/11/27 01:36:06;;;;;;;;;;;6.30;93.40;;;;;;4995651;28;19909;-43
2022/11/27 01:38:33;;;;;;;;;;;6.20;93.40;;;;;;4993899;28;19949;-45
2022/11/27 01:41:20;;;;;;;;;;;6.20;93.40;;;;;;5009051;28;19948;-45
2022/11/27 01:43:52;;;;;;;;;;;6.20;93.50;;;;;;5009191;28;19947;-44
2022/11/27 01:46:36;;;;;;;;;;;6.10;93.50;;;;;;4993684;28;19913;-43
2022/11/27 01:49:07;;;;;;;;;;;6.00;93.40;;;;;;4993102;28;20464;-44
2022/11/27 01:51:55;;;;;;;;;;;6.10;93.50;;;;;;4993765;28;19960;-45
2022/11/27 01:54:24;;;;;;;;;;;6.00;93.60;;;;;;5005243;28;19917;-44
2022/11/27 01:56:55;;;;;;;;;;;6.00;93.50;;;;;;5010920;28;19909;-44
2022/11/27 01:59:22;;;;;;;;;;;5.90;93.50;;;;;;5011902;28;19914;-45
2022/11/27 02:01:49;;;;;;;;;;;5.90;93.40;;;;;;5007951;28;19913;-44
2022/11/27 02:04:16;;;;;;;;;;;5.90;93.40;;;;;;4992522;28;19914;-44
2022/11/27 02:06:43;;;;;;;;;;;5.90;93.40;;;;;;4993569;28;20405;-44
2022/11/27 02:09:10;;;;;;;;;;;5.90;93.40;;;;;;5013935;28;19944;-45
2022/11/27 02:11:54;;;;;;;;;;;5.90;93.50;;;;;;5005019;28;20311;-45
2022/11/27 02:14:23;;;;;;;;;;;5.80;93.50;;;;;;4999153;28;20785;-45
2022/11/27 02:17:07;;;;;;;;;;;5.80;93.40;;;;;;5016998;28;19916;-44
2022/11/27 02:19:51;;;;;;;;;;;5.80;93.50;;;;;;5010524;28;19925;-44
2022/11/27 02:22:25;;;;;;;;;;;5.80;93.50;;;;;;4997237;28;19913;-45
2022/11/27 02:25:07;;;;;;;;;;;5.80;93.50;;;;;;5011236;28;19906;-45
2022/11/27 02:27:58;;;;;;;;;;;5.80;93.50;;;;;;5000680;28;19921;-45
2022/11/27 02:30:26;;;;;;;;;;;5.70;93.50;;;;;;5009507;28;20041;-46
2022/11/27 02:32:59;;;;;;;;;;;5.70;93.40;;;;;;4997157;28;20206;-45
2022/11/27 02:35:54;;;;;;;;;;;5.70;93.40;;;;;;5003419;28;19948;-44
2022/11/27 02:38:29;;;;;;;;;;;5.70;93.50;;;;;;4996174;28;20706;-45
2022/11/27 02:41:01;;;;;;;;;;;5.70;93.30;;;;;;5012318;28;20004;-45
2022/11/27 02:43:49;;;;;;;;;;;5.70;93.30;;;;;;5015599;28;20266;-46
2022/11/27 02:46:16;;;;;;;;;;;5.70;93.30;;;;;;5013054;28;19944;-46
2022/11/27 02:48:45;;;;;;;;;;;5.60;93.30;;;;;;4997081;28;20004;-45
2022/11/27 02:51:12;;;;;;;;;;;5.60;93.20;;;;;;5003494;28;19906;-45
2022/11/27 02:53:42;;;;;;;;;;;5.60;93.20;;;;;;5016481;28;19941;-45
2022/11/27 02:56:11;;;;;;;;;;;5.60;93.10;;;;;;5010751;28;19906;-46
2022/11/27 02:58:37;;;;;;;;;;;5.50;93.00;;;;;;4996773;28;19964;-46
2022/11/27 03:01:05;;;;;;;;;;;5.50;92.90;;;;;;5014632;28;19941;-46
2022/11/27 03:03:38;;;;;;;;;;;5.40;93.00;;;;;;5004132;28;19909;-45
2022/11/27 03:06:16;;;;;;;;;;;5.40;92.90;;;;;;5014422;28;20315;-48
2022/11/27 03:09:05;;;;;;;;;;;5.40;92.90;;;;;;4998809;28;19921;-46
2022/11/27 03:11:31;;;;;;;;;;;5.40;92.90;;;;;;5010439;28;19948;-46
2022/11/27 03:13:59;;;;;;;;;;;5.40;92.90;;;;;;4996366;28;19968;-46
2022/11/27 03:16:35;;;;;;;;;;;5.40;92.90;;;;;;5010024;28;20228;-45
2022/11/27 03:19:16;;;;;;;;;;;5.40;92.80;;;;;;4995783;28;19916;-46
2022/11/27 03:21:49;;;;;;;;;;;5.40;92.90;;;;;;5001901;28;20309;-48
2022/11/27 03:24:16;;;;;;;;;;;5.40;92.70;;;;;;5011954;28;20349;-46
2022/11/27 03:26:43;;;;;;;;;;;5.40;92.70;;;;;;5009084;28;19913;-46
2022/11/27 03:29:11;;;;;;;;;;;5.30;92.60;;;;;;5011103;28;19909;-49
2022/11/27 03:31:42;;;;;;;;;;;5.30;92.50;;;;;;5015264;28;19909;-46
2022/11/27 03:34:09;;;;;;;;;;;5.30;92.50;;;;;;4997550;28;20032;-46
2022/11/27 03:36:36;;;;;;;;;;;5.30;92.40;;;;;;4996168;28;19906;-46
2022/11/27 03:39:04;;;;;;;;;;;5.20;92.40;;;;;;4995980;28;19924;-47
2022/11/27 03:41:39;;;;;;;;;;;5.20;92.40;;;;;;4997147;28;19913;-46
2022/11/27 03:44:07;;;;;;;;;;;5.20;92.30;;;;;;4995851;28;20389;-47
2022/11/27 03:46:44;;;;;;;;;;;5.20;92.30;;;;;;5011972;28;19916;-46
2022/11/27 03:49:20;;;;;;;;;;;5.20;92.30;;;;;;5014956;28;19988;-47
2022/11/27 03:52:05;;;;;;;;;;;5.20;92.30;;;;;;5010069;28;19913;-47
2022/11/27 03:54:56;;;;;;;;;;;5.20;92.30;;;;;;4995576;28;19910;-47
2022/11/27 03:57:34;;;;;;;;;;;5.10;92.20;;;;;;4996929;28;20306;-47
2022/11/27 04:00:03;;;;;;;;;;;5.10;92.10;;;;;;5014177;28;19924;-47
2022/11/27 04:02:37;;;;;;;;;;;5.10;92.20;;;;;;4997903;28;20274;-47
2022/11/27 04:05:05;;;;;;;;;;;5.10;92.10;;;;;;5014202;28;19967;-48
2022/11/27 04:07:31;;;;;;;;;;;5.10;92.10;;;;;;5008898;28;19913;-47
2022/11/27 04:09:57;;;;;;;;;;;5.00;92.10;;;;;;4995416;28;20009;-47
2022/11/27 04:12:24;;;;;;;;;;;5.00;92.10;;;;;;5010800;28;20000;-49
2022/11/27 04:14:51;;;;;;;;;;;5.00;92.20;;;;;;5001457;28;19909;-50
2022/11/27 04:17:17;;;;;;;;;;;5.00;92.20;;;;;;4994878;28;20009;-50
2022/11/27 04:19:44;;;;;;;;;;;5.00;92.10;;;;;;5010371;28;19955;-47
2022/11/27 04:22:11;;;;;;;;;;;5.00;92.10;;;;;;5009580;28;19952;-48
2022/11/27 04:24:37;;;;;;;;;;;4.90;92.20;;;;;;4995168;28;19913;-47
2022/11/27 04:27:04;;;;;;;;;;;4.90;92.20;;;;;;4994150;28;20342;-47
2022/11/27 04:29:29;;;;;;;;;;;4.90;92.20;;;;;;5000358;28;20378;-50
2022/11/27 04:31:56;;;;;;;;;;;4.90;92.30;;;;;;5008865;28;20037;-47
2022/11/27 04:34:23;;;;;;;;;;;4.90;92.30;;;;;;4994796;28;19913;-48
2022/11/27 04:36:50;;;;;;;;;;;4.90;92.30;;;;;;5009887;28;19906;-47
2022/11/27 04:39:15;;;;;;;;;;;4.90;92.10;;;;;;4994382;28;19980;-47
2022/11/27 04:41:42;;;;;;;;;;;4.90;92.20;;;;;;4994526;28;19917;-49
2022/11/27 04:44:10;;;;;;;;;;;4.90;92.20;;;;;;5000331;28;19913;-47
2022/11/27 04:46:37;;;;;;;;;;;4.90;92.20;;;;;;5013699;28;19916;-47
2022/11/27 04:49:05;;;;;;;;;;;4.90;92.20;;;;;;5010289;28;20232;-48
2022/11/27 04:51:31;;;;;;;;;;;4.90;92.20;;;;;;5006097;28;19913;-47
2022/11/27 04:53:58;;;;;;;;;;;4.90;92.10;;;;;;5010618;28;19916;-47
2022/11/27 04:56:25;;;;;;;;;;;4.90;92.10;;;;;;5006900;28;19940;-47
2022/11/27 04:58:52;;;;;;;;;;;4.80;92.10;;;;;;5007222;28;20253;-47
2022/11/27 05:01:19;;;;;;;;;;;4.80;92.10;;;;;;5014016;28;19909;-49
2022/11/27 05:03:46;;;;;;;;;;;4.80;92.20;;;;;;5012160;28;19960;-47
2022/11/27 05:06:13;;;;;;;;;;;4.80;92.10;;;;;;5000393;28;20291;-49
2022/11/27 05:08:39;;;;;;;;;;;4.80;92.20;;;;;;4994592;28;20320;-48
2022/11/27 05:11:09;;;;;;;;;;;4.80;92.20;;;;;;5001351;28;19924;-50
2022/11/27 05:13:36;;;;;;;;;;;4.80;92.20;;;;;;5012245;28;19922;-48
2022/11/27 05:16:03;;;;;;;;;;;4.70;92.10;;;;;;5011197;28;19913;-48
2022/11/27 05:18:29;;;;;;;;;;;4.80;92.10;;;;;;5013722;28;19905;-48
2022/11/27 05:21:00;;;;;;;;;;;4.80;92.10;;;;;;5012427;28;19916;-47
2022/11/27 05:23:27;;;;;;;;;;;4.70;92.10;;;;;;5013247;28;19920;-49
2022/11/27 05:25:54;;;;;;;;;;;4.70;92.20;;;;;;5011150;28;19968;-48
2022/11/27 05:28:22;;;;;;;;;;;4.70;92.10;;;;;;5007250;28;19963;-49
2022/11/27 05:30:47;;;;;;;;;;;4.70;92.20;;;;;;5012932;28;19920;-47
2022/11/27 05:33:15;;;;;;;;;;;4.70;92.10;;;;;;5011850;28;19913;-47
2022/11/27 05:35:42;;;;;;;;;;;4.80;92.30;;;;;;5010633;28;19967;-47
2022/11/27 05:38:09;;;;;;;;;;;4.70;92.30;;;;;;5005788;28;19913;-47
2022/11/27 05:40:36;;;;;;;;;;;4.80;92.40;;;;;;4993985;28;19936;-47
2022/11/27 05:43:02;;;;;;;;;;;4.80;92.40;;;;;;5003877;28;19917;-47
2022/11/27 05:45:29;;;;;;;;;;;4.80;92.40;;;;;;5013221;28;19926;-49
2022/11/27 05:47:55;;;;;;;;;;;4.80;92.30;;;;;;5004908;28;19913;-47
2022/11/27 05:50:20;;;;;;;;;;;4.90;92.30;;;;;;5013036;28;19905;-47
2022/11/27 05:52:47;;;;;;;;;;;4.90;92.30;;;;;;5008856;28;20624;-47
2022/11/27 05:55:12;;;;;;;;;;;4.90;92.30;;;;;;4993812;28;19913;-47
2022/11/27 05:57:38;;;;;;;;;;;4.90;92.20;;;;;;5002413;28;19910;-47
2022/11/27 06:00:06;;;;;;;;;;;4.90;92.20;;;;;;5013298;28;19909;-47
2022/11/27 06:02:35;;;;;;;;;;;4.80;92.10;;;;;;5010907;28;19910;-47
2022/11/27 06:05:01;;;;;;;;;;;4.80;92.10;;;;;;5012715;28;19906;-48
2022/11/27 06:07:29;;;;;;;;;;;4.80;92.10;;;;;;5013254;28;19913;-47
2022/11/27 06:09:56;;;;;;;;;;;4.70;92.10;;;;;;5010883;28;19917;-46
2022/11/27 06:12:23;;;;;;;;;;;4.70;92.10;;;;;;4998980;28;19921;-46
2022/11/27 06:14:50;;;;;;;;;;;4.70;92.00;;;;;;5012828;28;19909;-46
2022/11/27 06:17:16;;;;;;;;;;;4.70;92.10;;;;;;4995765;28;19909;-47
2022/11/27 06:19:43;;;;;;;;;;;4.70;92.00;;;;;;5006136;28;19936;-47
2022/11/27 06:22:10;;;;;;;;;;;4.70;92.00;;;;;;5006611;28;19936;-46
2022/11/27 06:24:37;;;;;;;;;;;4.70;92.00;;;;;;4993410;28;19917;-46
2022/11/27 06:27:04;;;;;;;;;;;4.60;91.90;;;;;;5005284;28;20299;-47
2022/11/27 06:29:30;;;;;;;;;;;4.60;92.00;;;;;;4993163;28;19925;-46
2022/11/27 06:31:56;;;;;;;;;;;4.60;92.00;;;;;;4992793;28;19909;-46
2022/11/27 06:34:25;;;;;;;;;;;4.50;92.00;;;;;;5001378;28;19920;-47
2022/11/27 06:36:52;;;;;;;;;;;4.50;91.90;;;;;;5012318;28;19917;-47
2022/11/27 06:39:18;;;;;;;;;;;4.50;91.80;;;;;;5007617;28;19906;-47
2022/11/27 06:41:45;;;;;;;;;;;4.50;91.90;;;;;;4997750;28;20378;-47
2022/11/27 06:44:14;;;;;;;;;;;4.40;91.90;;;;;;5011925;28;19909;-46
2022/11/27 06:46:39;;;;;;;;;;;4.40;92.00;;;;;;5011505;28;20326;-47
2022/11/27 06:49:06;;;;;;;;;;;4.40;92.00;;;;;;5010293;28;19920;-46
2022/11/27 06:51:32;;;;;;;;;;;4.40;92.00;;;;;;5011815;28;19909;-49
2022/11/27 06:53:59;;;;;;;;;;;4.40;92.00;;;;;;5013977;28;19905;-47
2022/11/27 06:56:27;;;;;;;;;;;4.40;92.00;;;;;;5004344;28;19916;-46
2022/11/27 06:58:57;;;;;;;;;;;4.40;92.00;;;;;;5014023;28;19929;-45
2022/11/27 07:01:25;;;;;;;;;;;4.40;92.00;;;;;;4998074;28;19910;-45
2022/11/27 07:03:52;;;;;;;;;;;4.40;92.00;;;;;;5016472;28;20319;-45
2022/11/27 07:06:19;;;;;;;;;;;4.40;91.90;;;;;;5014455;28;19909;-44
2022/11/27 07:08:46;;;;;;;;;;;4.40;91.80;;;;;;5013055;28;19909;-46
2022/11/27 07:11:22;;;;;;;;;;;4.40;91.70;;;;;;5010883;28;19940;-45
2022/11/27 07:13:50;;;;;;;;;;;4.40;91.70;;;;;;5014232;28;19936;-48
2022/11/27 07:16:18;;;;;;;;;;;4.30;91.70;;;;;;5014333;28;19952;-46
2022/11/27 07:18:50;;;;;;;;;;;4.30;91.70;;;;;;5014494;28;19937;-47
2022/11/27 07:21:15;;;;;;;;;;;4.40;91.80;;;;;;5013088;28;19967;-47
2022/11/27 07:23:42;;;;;;;;;;;4.30;91.60;;;;;;5014294;28;19909;-45
2022/11/27 07:26:16;;;;;;;;;;;4.30;91.60;;;;;;5012892;28;19921;-45
2022/11/27 07:28:44;;;;;;;;;;;4.30;91.60;;;;;;5013757;28;20290;-46
2022/11/27 07:31:12;;;;;;;;;;;4.30;91.60;;;;;;5013381;28;19956;-45
2022/11/27 07:33:38;;;;;;;;;;;4.20;91.70;;;;;;5012143;28;19968;-45
2022/11/27 07:36:09;;;;;;;;;;;4.30;91.70;;;;;;5015559;28;19932;-46
2022/11/27 07:38:36;;;;;;;;;;;4.30;91.60;;;;;;5013758;28;20223;-45
2022/11/27 07:41:03;;;;;;;;;;;4.30;91.60;;;;;;4996164;28;20353;-45
2022/11/27 07:43:30;;;;;;;;;;;4.30;91.50;;;;;;5012417;28;19913;-46
2022/11/27 07:45:57;;;;;;;;;;;4.30;91.50;;;;;;5013052;28;19910;-44
2022/11/27 07:48:24;;;;;;;;;;;4.30;91.40;;;;;;5013726;28;19910;-44
2022/11/27 07:50:51;;;;;;;;;;;4.40;91.50;;;;;;4997840;28;20369;-45
2022/11/27 07:53:17;;;;;;;;;;;4.40;91.50;;;;;;5010278;28;19940;-45
2022/11/27 07:55:46;;;;;;;;;;;4.40;91.50;;;;;;5004212;28;19921;-44
2022/11/27 07:58:13;;;;;;;;;;;4.50;91.50;;;;;;5009834;28;19913;-45
2022/11/27 08:00:40;;;;;;;;;;;4.50;91.40;;;;;;5012536;28;20349;-44
2022/11/27 08:03:07;;;;;;;;;;;4.60;91.20;;;;;;5009379;28;19917;-46
2022/11/27 08:05:35;;;;;;;;;;;4.50;90.90;;;;;;5009582;28;19921;-44
2022/11/27 08:08:04;;;;;;;;;;;4.50;90.90;;;;;;5000184;28;20055;-45
2022/11/27 08:10:33;;;;;;;;;;;4.50;91.00;;;;;;5012876;28;19921;-44
2022/11/27 08:13:00;;;;;;;;;;;4.50;91.10;;;;;;5010262;28;19928;-44
2022/11/27 08:15:30;;;;;;;;;;;4.60;90.90;;;;;;5014433;28;19909;-45
2022/11/27 08:17:56;;;;;;;;;;;4.60;90.80;;;;;;5014246;28;20408;-44
2022/11/27 08:20:26;;;;;;;;;;;4.60;90.70;;;;;;5009850;28;20370;-43
2022/11/27 08:22:53;;;;;;;;;;;4.60;90.50;;;;;;5011703;28;19918;-45
2022/11/27 08:25:20;;;;;;;;;;;4.70;90.60;;;;;;5013093;28;19913;-43
2022/11/27 08:27:47;;;;;;;;;;;4.70;90.50;;;;;;5007974;28;19989;-45
2022/11/27 08:30:16;;;;;;;;;;;4.80;90.30;;;;;;4999872;28;20349;-44
2022/11/27 08:32:43;;;;;;;;;;;4.90;90.30;;;;;;5010428;28;19917;-45
2022/11/27 08:35:10;;;;;;;;;;;5.00;90.20;;;;;;5012620;28;19995;-44
2022/11/27 08:37:37;;;;;;;;;;;5.00;89.90;;;;;;5011284;28;19909;-43
2022/11/27 08:40:04;;;;;;;;;;;5.00;89.60;;;;;;5013869;28;19928;-42
2022/11/27 08:42:31;;;;;;;;;;;5.10;89.40;;;;;;5012097;28;19913;-42
2022/11/27 08:44:58;;;;;;;;;;;5.10;89.50;;;;;;5012030;28;20248;-42
2022/11/27 08:47:24;;;;;;;;;;;5.10;89.50;;;;;;5013145;28;19910;-43
2022/11/27 08:49:51;;;;;;;;;;;5.10;89.60;;;;;;5012871;28;20378;-43
2022/11/27 08:52:17;;;;;;;;;;;5.10;89.20;;;;;;5012706;28;20038;-42
2022/11/27 08:54:42;;;;;;;;;;;5.00;89.20;;;;;;4993219;28;20034;-43
2022/11/27 08:57:09;;;;;;;;;;;5.00;89.30;;;;;;5014315;28;19995;-42
2022/11/27 08:59:36;;;;;;;;;;;5.00;89.50;;;;;;5012266;28;19910;-43
2022/11/27 09:02:02;;;;;;;;;;;5.00;89.30;;;;;;5013084;28;19909;-43
2022/11/27 09:04:29;;;;;;;;;;;5.10;89.30;;;;;;5007723;28;20366;-43
2022/11/27 09:06:56;;;;;;;;;;;5.00;89.10;;;;;;5011992;28;19992;-43
2022/11/27 09:09:23;;;;;;;;;;;5.00;89.10;;;;;;5012501;28;19914;-42
2022/11/27 09:11:49;;;;;;;;;;;5.10;89.20;;;;;;5010253;28;20044;-42
2022/11/27 09:14:16;;;;;;;;;;;5.20;89.20;;;;;;5011086;28;19909;-43
2022/11/27 09:16:53;;;;;;;;;;;5.20;89.20;;;;;;5010323;28;19975;-43
2022/11/27 09:19:20;;;;;;;;;;;5.20;89.20;;;;;;5013484;28;19913;-42
2022/11/27 09:21:48;;;;;;;;;;;5.30;89.30;;;;;;5013384;28;19906;-43
2022/11/27 09:24:14;;;;;;;;;;;5.30;88.80;;;;;;5010752;28;19917;-42
2022/11/27 09:26:40;;;;;;;;;;;5.40;88.80;;;;;;5011904;28;19956;-44
2022/11/27 09:29:07;;;;;;;;;;;5.40;88.50;;;;;;5009982;28;19909;-44
2022/11/27 09:31:34;;;;;;;;;;;5.40;88.60;;;;;;5012509;28;20012;-43
2022/11/27 09:33:59;;;;;;;;;;;5.40;88.60;;;;;;5013287;28;19909;-44
2022/11/27 09:36:26;;;;;;;;;;;5.40;88.40;;;;;;5000387;28;20309;-43
2022/11/27 09:38:53;;;;;;;;;;;5.40;88.40;;;;;;4993776;28;20607;-43
2022/11/27 09:41:27;;;;;;;;;;;5.40;88.20;;;;;;4993479;28;19968;-43
2022/11/27 09:44:02;;;;;;;;;;;5.50;88.50;;;;;;5007973;28;19916;-43
2022/11/27 09:46:30;;;;;;;;;;;5.50;88.50;;;;;;4993493;28;20335;-43
2022/11/27 09:48:59;;;;;;;;;;;5.50;88.40;;;;;;4997090;28;19917;-43
2022/11/27 09:51:43;;;;;;;;;;;5.60;88.40;;;;;;4999032;28;19916;-44
2022/11/27 09:54:12;;;;;;;;;;;5.60;88.30;;;;;;5009202;28;19984;-43
2022/11/27 09:56:38;;;;;;;;;;;5.60;88.20;;;;;;4993884;28;19936;-43
2022/11/27 09:59:11;;;;;;;;;;;5.70;88.10;;;;;;5003995;28;20346;-45
2022/11/27 10:01:38;;;;;;;;;;;5.70;88.20;;;;;;5012245;28;19924;-44
2022/11/27 10:04:05;;;;;;;;;;;5.70;88.10;;;;;;4998967;28;19915;-43
2022/11/27 10:06:39;;;;;;;;;;;5.60;88.00;;;;;;4995518;28;19921;-46
2022/11/27 10:09:24;;;;;;;;;;;5.60;88.20;;;;;;5002106;28;20012;-44
2022/11/27 10:11:55;;;;;;;;;;;5.60;88.30;;;;;;5012216;28;19921;-44
2022/11/27 10:14:40;;;;;;;;;;;5.60;88.20;;;;;;5006985;28;20895;-43
2022/11/27 10:17:19;;;;;;;;;;;5.60;88.30;;;;;;4993158;28;19917;-45
2022/11/27 10:19:51;;;;;;;;;;;5.70;88.10;;;;;;5003308;28;19909;-44
2022/11/27 10:22:37;;;;;;;;;;;5.70;88.10;;;;;;5008471;28;19909;-45
2022/11/27 10:25:21;;;;;;;;;;;5.70;87.90;;;;;;5010886;28;19910;-45
2022/11/27 10:28:02;;;;;;;;;;;5.70;87.80;;;;;;5008854;28;20268;-44
2022/11/27 10:30:32;;;;;;;;;;;5.70;87.70;;;;;;5015236;28;19909;-46
2022/11/27 10:32:59;;;;;;;;;;;5.80;87.60;;;;;;4997809;28;19918;-44
2022/11/27 10:35:29;;;;;;;;;;;5.80;87.60;;;;;;5015724;28;20043;-45
2022/11/27 10:38:08;;;;;;;;;;;5.80;87.10;;;;;;5015114;28;20239;-45
2022/11/27 10:40:52;;;;;;;;;;;5.80;87.10;;;;;;5012437;28;20290;-45
2022/11/27 10:43:23;;;;;;;;;;;5.90;87.00;;;;;;5014266;28;19963;-43
2022/11/27 10:46:00;;;;;;;;;;;5.90;86.90;;;;;;5011896;28;20350;-45
2022/11/27 10:48:28;;;;;;;;;;;5.90;87.20;;;;;;5003601;28;19920;-45
2022/11/27 10:50:55;;;;;;;;;;;6.00;87.10;;;;;;5010021;28;19913;-44
2022/11/27 10:53:32;;;;;;;;;;;6.00;87.10;;;;;;5007745;28;19913;-49
2022/11/27 10:56:03;;;;;;;;;;;6.00;86.80;;;;;;5006700;28;19910;-45
2022/11/27 10:58:48;;;;;;;;;;;6.10;86.50;;;;;;5008425;28;20688;-45
2022/11/27 11:01:16;;;;;;;;;;;6.10;87.00;;;;;;5010638;28;19910;-44
2022/11/27 11:03:43;;;;;;;;;;;6.20;86.90;;;;;;5015359;28;19959;-47
2022/11/27 11:06:17;;;;;;;;;;;6.20;86.70;;;;;;5014470;28;19916;-46
2022/11/27 11:08:43;;;;;;;;;;;6.20;86.70;;;;;;5015548;28;19967;-46
2022/11/27 11:11:10;;;;;;;;;;;6.10;86.20;;;;;;5002463;28;19914;-45
2022/11/27 11:13:44;;;;;;;;;;;6.10;86.50;;;;;;4995552;28;20036;-44
2022/11/27 11:16:31;;;;;;;;;;;6.20;86.60;;;;;;5015234;28;19909;-47
2022/11/27 11:18:59;;;;;;;;;;;6.20;86.60;;;;;;5010947;28;19956;-46
2022/11/27 11:21:52;;;;;;;;;;;6.10;86.70;;;;;;4999583;28;19909;-48
2022/11/27 11:24:30;;;;;;;;;;;6.10;86.70;;;;;;4993930;28;19968;-46
2022/11/27 11:27:17;;;;;;;;;;;6.10;86.20;;;;;;5003401;28;19910;-45
2022/11/27 11:29:51;;;;;;;;;;;6.10;86.50;;;;;;5010688;28;19913;-47
2022/11/27 11:32:22;;;;;;;;;;;6.10;86.50;;;;;;5014296;28;20357;-50
2022/11/27 11:34:52;;;;;;;;;;;6.10;86.50;;;;;;5014176;28;19913;-49
2022/11/27 11:37:24;;;;;;;;;;;6.00;86.30;;;;;;5000528;28;20331;-47
2022/11/27 11:40:07;;;;;;;;;;;6.10;86.20;;;;;;4994730;28;19933;-47
2022/11/27 11:42:36;;;;;;;;;;;6.10;86.30;;;;;;5010980;28;19925;-45
2022/11/27 11:45:10;;;;;;;;;;;6.10;86.10;;;;;;5001099;28;19909;-44
2022/11/27 11:48:00;;;;;;;;;;;6.10;85.80;;;;;;5012182;28;20523;-46
2022/11/27 11:50:28;;;;;;;;;;;6.20;85.90;;;;;;5014651;28;20338;-49
2022/11/27 11:53:22;;;;;;;;;;;6.20;86.30;;;;;;5008833;28;19920;-44
2022/11/27 11:56:07;;;;;;;;;;;6.20;86.10;;;;;;4986888;28;19913;-47
2022/11/27 11:58:51;;;;;;;;;;;6.20;86.20;;;;;;5006898;28;20331;-50
2022/11/27 12:01:17;;;;;;;;;;;6.30;86.20;;;;;;5011866;28;20298;-45
2022/11/27 12:03:54;;;;;;;;;;;6.30;86.40;;;;;;5013056;28;19909;-49
2022/11/27 12:06:39;;;;;;;;;;;6.20;86.50;;;;;;5011694;28;19976;-44
2022/11/27 12:09:13;;;;;;;;;;;6.30;86.60;;;;;;5010364;28;19914;-46
2022/11/27 12:11:42;;;;;;;;;;;6.20;86.70;;;;;;4994601;28;19964;-44
2022/11/27 12:14:26;;;;;;;;;;;6.20;86.60;;;;;;5024586;28;20324;-44
2022/11/27 12:17:11;;;;;;;;;;;6.20;86.80;;;;;;4994500;28;19928;-46
2022/11/27 12:20:00;;;;;;;;;;;6.20;86.80;;;;;;4994229;28;19920;-44
2022/11/27 12:22:29;;;;;;;;;;;6.20;86.90;;;;;;5011938;28;19952;-44
2022/11/27 12:25:01;;;;;;;;;;;6.20;87.20;;;;;;5009628;28;19942;-43
2022/11/27 12:27:36;;;;;;;;;;;6.20;87.20;;;;;;5002636;28;19913;-45
2022/11/27 12:30:07;;;;;;;;;;;6.20;87.10;;;;;;5013347;28;20052;-49
2022/11/27 12:32:53;;;;;;;;;;;6.20;87.30;;;;;;5014223;28;19921;-47
2022/11/27 12:35:30;;;;;;;;;;;6.10;87.50;;;;;;5003059;28;20004;-48
2022/11/27 12:38:18;;;;;;;;;;;6.10;87.70;;;;;;5008011;28;19943;-52
2022/11/27 12:41:02;;;;;;;;;;;6.20;87.90;;;;;;5011436;28;19909;-50
2022/11/27 12:43:31;;;;;;;;;;;6.20;88.10;;;;;;5009701;28;19913;-53
2022/11/27 12:46:15;;;;;;;;;;;6.20;88.10;;;;;;5011501;28;19945;-53
2022/11/27 12:48:47;;;;;;;;;;;6.20;88.20;;;;;;5011071;28;20334;-50
2022/11/27 12:51:25;;;;;;;;;;;6.20;88.40;;;;;;5010824;28;19944;-55
2022/11/27 12:54:02;;;;;;;;;;;6.20;88.50;;;;;;5013444;28;20243;-53
2022/11/27 12:56:40;;;;;;;;;;;6.20;88.60;;;;;;5013172;28;19909;-58
2022/11/27 12:59:24;;;;;;;;;;;6.20;88.80;;;;;;5008497;28;20422;-58
2022/11/27 13:02:10;;;;;;;;;;;6.20;88.80;;;;;;5013483;28;19913;-58
2022/11/27 13:04:55;;;;;;;;;;;6.20;88.70;;;;;;5011310;28;19920;-57
2022/11/27 13:07:40;;;;;;;;;;;6.20;88.70;;;;;;5012323;28;19945;-57
2022/11/27 13:10:08;;;;;;;;;;;6.20;88.70;;;;;;5012002;28;19913;-60
2022/11/27 13:12:38;;;;;;;;;;;6.20;89.00;;;;;;5007937;28;19929;-61
2022/11/27 13:15:25;;;;;;;;;;;6.20;89.10;;;;;;5007648;28;19971;-61
2022/11/27 13:17:56;;;;;;;;;;;6.20;89.10;;;;;;5013686;28;20288;-60
2022/11/27 13:20:29;;;;;;;;;;;6.30;89.20;;;;;;5013580;28;19928;-59
2022/11/27 13:22:55;;;;;;;;;;;6.20;89.30;;;;;;5008228;28;19910;-58
2022/11/27 13:25:22;;;;;;;;;;;6.20;89.30;;;;;;4992687;28;20228;-54
2022/11/27 13:27:50;;;;;;;;;;;6.10;89.30;;;;;;4997485;28;19918;-60
2022/11/27 13:30:22;;;;;;;;;;;6.20;89.50;;;;;;4996031;28;19910;-60
2022/11/27 13:32:56;;;;;;;;;;;6.20;89.50;;;;;;5003980;28;19914;-61
2022/11/27 13:35:35;;;;;;;;;;;6.20;89.60;;;;;;5008498;28;20008;-61
2022/11/27 13:38:27;;;;;;;;;;;6.10;89.70;;;;;;5012037;28;20270;-61
2022/11/27 13:40:54;;;;;;;;;;;6.20;89.80;;;;;;4992535;28;19932;-62
2022/11/27 13:43:23;;;;;;;;;;;6.20;89.80;;;;;;5010509;28;19913;-63
2022/11/27 13:45:50;;;;;;;;;;;6.10;90.00;;;;;;4993936;28;19914;-63
2022/11/27 13:48:35;;;;;;;;;;;6.10;90.10;;;;;;4993597;28;19941;-64
2022/11/27 13:51:02;;;;;;;;;;;6.10;90.30;;;;;;4993453;28;19924;-63
2022/11/27 13:53:32;;;;;;;;;;;6.00;90.50;;;;;;5013051;28;20043;-63
2022/11/27 13:55:59;;;;;;;;;;;6.10;90.50;;;;;;5013210;28;19936;-62
2022/11/27 13:58:51;;;;;;;;;;;6.00;90.70;;;;;;5000487;28;19932;-60
2022/11/27 14:01:21;;;;;;;;;;;6.00;90.80;;;;;;5009734;28;20016;-60
2022/11/27 14:03:51;;;;;;;;;;;6.00;91.00;;;;;;5014651;28;19951;-60
2022/11/27 14:06:35;;;;;;;;;;;6.00;91.00;;;;;;5007816;28;19914;-59
2022/11/27 14:09:03;;;;;;;;;;;6.00;91.10;;;;;;4998592;28;19905;-60
2022/11/27 14:11:42;;;;;;;;;;;5.90;91.20;;;;;;4997430;28;19928;-58
2022/11/27 14:14:27;;;;;;;;;;;6.00;91.20;;;;;;5009822;28;19940;-59
2022/11/27 14:16:55;;;;;;;;;;;5.90;91.40;;;;;;5015667;28;19944;-58
2022/11/27 14:19:33;;;;;;;;;;;5.90;91.40;;;;;;5013687;28;19913;-58
2022/11/27 14:22:00;;;;;;;;;;;5.90;91.40;;;;;;5011914;28;19917;-58
2022/11/27 14:24:45;;;;;;;;;;;5.90;91.50;;;;;;5016419;28;19919;-56
2022/11/27 14:27:24;;;;;;;;;;;5.90;91.50;;;;;;5012921;28;19979;-58
2022/11/27 14:29:50;;;;;;;;;;;5.90;91.60;;;;;;5011695;28;20004;-59
2022/11/27 14:32:18;;;;;;;;;;;5.90;91.60;;;;;;5001066;28;20012;-59
2022/11/27 14:36:35;;;;;;;15.05;9.65;;;5.90;91.60;;;;;;5072751;28;20110;-59
2022/11/27 14:39:05;;;;;;;14.30;10.25;;;5.90;91.60;;;;;;5063041;28;20016;-58
2022/11/27 14:41:32;;;;;;;15.25;10.73;;;5.90;91.70;;;;;;5058306;28;20319;-58
2022/11/27 14:44:18;;;;;;;18.67;11.13;;;5.80;91.70;;;;;;5062825;28;20027;-58
2022/11/27 14:46:47;;;;;;;14.75;10.82;;;5.80;91.80;;;;;;5060169;28;20089;-54
2022/11/27 14:49:19;;;;;;;16.40;10.88;;;5.80;91.80;;;;;;5058308;28;20036;-57
2022/11/27 14:51:46;;;;;;;17.98;11.07;;;5.80;91.80;;;;;;5062714;28;20455;-58